Mode, IL (62444)

3:19 AM CDT on September 04, 2015 (GMT -0500)
NE Loudon Township | | Change Station
CLOSE
Current Station
Personal Weather Station
Location: Beecher City, IL
Elevation: 594 ft
Nearby Weather Stations

Elev 594 ft 39.14 °N, 88.81 °W | Updated 2 minutes ago

Clear
Clear
69.3 °F
Feels Like 69.3 °F
N
0.0
Wind Variable Wind from SSW

Today
High -- | Low -- °F
--% Chance of Precip.
Yesterday
High -- | Low -- °F
Precip. -- in
6:26 AM 7:21 PM
Waning Gibbous, 62% visible
Pressure 29.99 in
Visibility 5.0 miles
Clouds Clear
Dew Point 67 °F
Humidity 91%
Rainfall 0.00 in
Snow Depth Not available.
UV 0 out of 12
Pollen 10.40 out of 12
Air Quality Not available.
Flu Activity Not available.
METAR K1H2 040755Z AUTO 00000KT 5SM BR CLR 21/19 A2999 RMK AO2 T02050190
Pressure 29.99 in
Visibility 5.0 miles
Clouds Clear
Dew Point 67 °F
Humidity 91%
Rainfall 0.00 in
Snow Depth Not available.
UV 0 out of 12
Pollen 10.40 out of 12
Air Quality Not available.
Flu Activity Not available.
METAR K1H2 040755Z AUTO 00000KT 5SM BR CLR 21/19 A2999 RMK AO2 T02050190

10-Day Weather Forecast

×

Almanac

Astronomy

Sep. 04, 2015 Rise Set
Actual Time
Civil Twilight
Nautical Twilight
Astronomical Twilight
Moon
Length of Visible Light
Length of Day
Tomorrow will be .
, % of the Moon is Illuminated

Today's Extremes

State Highs State Lows

Community

WunderPhotos

Upload Photos

1,852,141 photos uploaded!

WunderBlogs® & News

Nearby

Air Quality

  Air Quality AQ Index Pollutant
Not available.

Snow Depth

Station Depth Elevation

Earthquake Activity

City Distance Mag. Time & Date
Minimum magnitude displayed is 2.5.

Coastal Water Temperatures

Place Temperature

Stations

Nearby Weather Stations

Station Location Temp. Windchill Dew Point Humidity Wind Precip. Elev Updated Type